Drybrook, United Kingdom
Current Conditions -  °F | °C
As of 4:50 PM on Friday 28 Nov 2014 (Local Time) from EGBJ Reporting Station
Broken Clouds Broken Clouds  
Wind Chill: 54°   Ceiling: 1100
Heat Index: 54°   Visibility: 5mi
Dew Point: 50°   Wind: 8mph
Humidity: 88%   Direction: 50°NE
Pressure: 29.62"   Gusts: NA
Location:  51.86°N, 2.52°W
Report Text: EGBJ 281650Z 05007KT 8000 BKN011 12/10 Q1003
Loading
Personal Weather Stations






























Interactive Weather Map New forecast layout! Learn more

10-Day Weather Forecast

Advertisements
Track Severe Weather on mobile